Terminal Aerodrome Forecast
Issued by NWS

Home | Current Version | Previous Version | Text Only | Print | Product List | Glossary On
Versions: 1 2 3 4 5 6 7 8 9 10 11 12 13 14 15 16 17 18 19 20 21 22 23 24 25 26 27 28 29 30 31 32 33 34 35 36 37 38
000
FTUS41 KBOX 221447 AAA
TAFHYA
TAF AMD
KHYA 221447Z 2215/2312 21015G19KT P6SM OVC010
     FM222000 21015G25KT P6SM BKN020
     FM230300 21017G28KT 5SM BR BKN010
     FM230800 21015G27KT 4SM BR VCSH OVC010=

USA.gov is the U.S. government's official web portal to all federal, state and local government web resources and services.